Savage Elevate — WDJ7728 — position and weather

sailwx.info

Track history (hours):
 
Tides and Currents Weather Stations Pressure Air Temp Water Temp Dewpoint Dewpoint Depression Visibility Wind Speed Wind Dir Waves Ship Positions

Savage Elevate

Owner: Savage Inland Marine, Gibson, LA. More information available from US FCC via Universal Licensing System and Coast Guard Vessel Documentation Center.

Last reported at 2018-Feb-25 11:42 UTC. Time now 2018-Feb-25 19:30 UTC.
Position N 29°47' W 095°04'.

Length 24 m; draft 3 m.

Type: Tug. MMSI: 367583130.

Date/timePositionNaut miles runAvg speedWind from/ knotsBaromVisibWave heightAir tempDewpointWater temp
2018-Feb-25 11:42N 29°47' W 095°04'2 0.9
2018-Feb-25 08:57N 29°46' W 095°06'1 1.1
2018-Feb-25 08:24N 29°45' W 095°06'1 0.8
2018-Feb-25 07:13N 29°46' W 095°05'1 5.8
2018-Feb-25 06:58N 29°45' W 095°04'3 5.3
2018-Feb-25 06:29N 29°43' W 095°01'3 5.4
2018-Feb-25 06:00N 29°41' W 094°59'3 6.2
2018-Feb-25 05:30N 29°38' W 094°58'3 6.2
2018-Feb-25 05:00N 29°35' W 094°56'3 6.3
2018-Feb-25 04:30N 29°33' W 094°54'3 5.4
2018-Feb-25 04:00N 29°31' W 094°53'4 6.7
2018-Feb-25 03:28N 29°27' W 094°51'3 6.9
2018-Feb-25 03:00N 29°24' W 094°49'15 0.5
2018-Feb-23 19:06N 29°30' W 094°33'0 0.0
2018-Feb-23 18:39N 29°30' W 094°33'0 0.0
2018-Feb-23 17:39N 29°30' W 094°33'0 0.0
2018-Feb-23 09:12N 29°30' W 094°33'0 0.0
2018-Feb-23 08:07N 29°30' W 094°33'9 1.1
2018-Feb-23 00:40N 29°34' W 094°25'3 4.1
2018-Feb-22 23:49N 29°36' W 094°22'2 5.4
2018-Feb-22 23:26N 29°37' W 094°20'2 5.5
2018-Feb-22 23:00N 29°39' W 094°17'3 5.3
2018-Feb-22 22:30N 29°40' W 094°14'2 4.3
2018-Feb-22 22:00N 29°41' W 094°12'3 5.1
2018-Feb-22 21:30N 29°41' W 094°09'3 5.1
2018-Feb-22 21:00N 29°43' W 094°07'3 5.2
2018-Feb-22 20:30N 29°45' W 094°05'3 5.4
2018-Feb-22 20:00N 29°46' W 094°02'3 5.3
2018-Feb-22 19:30N 29°48' W 094°00'2 4.4
2018-Feb-22 19:00N 29°49' W 093°58'3 5.4
2018-Feb-22 18:30N 29°52' W 093°56'3 6.5
2018-Feb-22 18:00N 29°54' W 093°54'3 6.6
2018-Feb-22 17:30N 29°57' W 093°52'2 3.2
2018-Feb-22 17:00N 29°58' W 093°51'0 0.5
2018-Feb-22 16:30N 29°58' W 093°51'0 0.6
2018-Feb-22 16:00N 29°58' W 093°51'0 0.0
2018-Feb-22 15:30N 29°58' W 093°51'0 0.0
2018-Feb-22 15:00N 29°58' W 093°51'0 0.0
2018-Feb-22 14:30N 29°58' W 093°51'0 0.0
2018-Feb-22 14:01N 29°58' W 093°51'0 0.0
2018-Feb-22 13:31N 29°58' W 093°51'0 0.0
2018-Feb-22 13:01N 29°58' W 093°51'0 0.0
2018-Feb-22 12:30N 29°58' W 093°51'0 0.2
2018-Feb-22 12:00N 29°58' W 093°51'1 1.1
2018-Feb-22 11:30N 29°59' W 093°50'3 6.7
2018-Feb-22 11:00N 29°60' W 093°47'3 6.5
2018-Feb-22 10:30N 30°02' W 093°44'3 5.7
2018-Feb-22 09:59N 30°04' W 093°41'3 5.9
2018-Feb-22 09:30N 30°04' W 093°38'2 4.3
2018-Feb-22 08:59N 30°04' W 093°35'2 4.7
2018-Feb-22 08:30N 30°04' W 093°33'2 4.9
2018-Feb-22 08:00N 30°04' W 093°30'2 4.9
2018-Feb-22 07:30N 30°04' W 093°27'2 4.6
2018-Feb-22 07:00N 30°04' W 093°24'2 3.7
2018-Feb-22 06:28N 30°04' W 093°22'1 3.1
2018-Feb-22 06:00N 30°04' W 093°21'2 3.1
2018-Feb-22 05:24N 30°06' W 093°20'2 4.8
2018-Feb-22 05:00N 30°08' W 093°20'0 0.8
2018-Feb-22 04:26N 30°08' W 093°19'0 0.1
2018-Feb-22 03:54N 30°08' W 093°19'0 0.2
2018-Feb-22 03:08N 30°08' W 093°19'0 0.0
2018-Feb-22 02:54N 30°08' W 093°19'0 0.0
2018-Feb-22 02:22N 30°08' W 093°19'0 0.0
2018-Feb-22 02:00N 30°08' W 093°19'0 0.0
2018-Feb-22 01:28N 30°08' W 093°19'0 0.0
2018-Feb-22 01:00N 30°08' W 093°19'0 0.0
2018-Feb-22 00:30N 30°08' W 093°19'0 0.0
2018-Feb-22 00:00N 30°08' W 093°19'0 0.0
2018-Feb-21 23:28N 30°08' W 093°19'0 0.0
2018-Feb-21 22:50N 30°08' W 093°19'0 0.0
2018-Feb-21 22:30N 30°08' W 093°19'0 0.0
2018-Feb-21 22:00N 30°08' W 093°19'0 0.0
2018-Feb-21 21:28N 30°08' W 093°19'0 0.0
2018-Feb-21 21:00N 30°08' W 093°19'0 0.0
2018-Feb-21 20:30N 30°08' W 093°19'0 0.0
2018-Feb-21 20:00N 30°08' W 093°19'0 0.0
2018-Feb-21 19:23N 30°08' W 093°19'0 0.0
2018-Feb-21 19:00N 30°08' W 093°19'0 0.0
2018-Feb-21 18:26N 30°08' W 093°19'0 0.0
2018-Feb-21 18:00N 30°08' W 093°19'0 0.0
2018-Feb-21 17:30N 30°08' W 093°19'0 0.0
2018-Feb-21 17:00N 30°08' W 093°19'0 0.0
2018-Feb-21 16:30N 30°08' W 093°19'0 0.0
2018-Feb-21 16:00N 30°08' W 093°19'0 0.0
2018-Feb-21 15:30N 30°08' W 093°19'0 0.0
2018-Feb-21 15:00N 30°08' W 093°19'0 0.0
2018-Feb-21 14:30N 30°08' W 093°19'0 0.0
2018-Feb-21 14:00N 30°08' W 093°19'0 0.0
2018-Feb-21 13:29N 30°08' W 093°19'0 0.0
2018-Feb-21 13:00N 30°08' W 093°19'0 0.0
2018-Feb-21 12:30N 30°08' W 093°19'0 0.0
2018-Feb-21 12:00N 30°08' W 093°19'0 0.0
2018-Feb-21 11:30N 30°08' W 093°19'0 0.0
2018-Feb-21 11:00N 30°08' W 093°19'0 0.0
2018-Feb-21 10:30N 30°08' W 093°19'0 0.0
2018-Feb-21 10:00N 30°08' W 093°19'0 0.0
2018-Feb-21 09:29N 30°08' W 093°19'0 0.0
2018-Feb-21 09:00N 30°08' W 093°19'0 0.0
2018-Feb-21 08:30N 30°08' W 093°19'0 0.0
2018-Feb-21 08:00N 30°08' W 093°19'0 0.0
2018-Feb-21 07:30N 30°08' W 093°19'0 0.0
2018-Feb-21 07:00N 30°08' W 093°19'0 0.0
2018-Feb-21 06:30N 30°08' W 093°19'0 0.0
2018-Feb-21 06:00N 30°08' W 093°19'0 0.0
2018-Feb-21 05:30N 30°08' W 093°19'0 0.0
2018-Feb-21 05:00N 30°08' W 093°19'0 0.0
2018-Feb-21 04:30N 30°08' W 093°19'0 0.1
2018-Feb-21 04:00N 30°08' W 093°19'0 0.1
2018-Feb-21 03:30N 30°08' W 093°19'0 0.0
2018-Feb-21 02:59N 30°08' W 093°19'0 0.0
2018-Feb-21 02:30N 30°08' W 093°19'0 0.1
2018-Feb-21 02:00N 30°08' W 093°19'2 4.1
2018-Feb-21 01:30N 30°06' W 093°20'3 5.7
2018-Feb-21 01:00N 30°04' W 093°21'1 1.9
2018-Feb-21 00:29N 30°04' W 093°22'0 0.0
2018-Feb-21 00:00N 30°04' W 093°22'1 1.8
2018-Feb-20 23:30N 30°04' W 093°21'0 0.0
2018-Feb-20 23:00N 30°04' W 093°21'0 0.0
2018-Feb-20 22:30N 30°04' W 093°21'0 0.0
2018-Feb-20 22:00N 30°04' W 093°21'0 0.0
2018-Feb-20 21:30N 30°04' W 093°21'0 0.0
2018-Feb-20 21:00N 30°04' W 093°21'0 0.0
2018-Feb-20 20:28N 30°04' W 093°21'0 0.0
2018-Feb-20 20:00N 30°04' W 093°21'0 0.0
2018-Feb-20 19:30N 30°04' W 093°21'0 0.0
2018-Feb-20 19:00N 30°04' W 093°21'0 0.0
2018-Feb-20 18:30N 30°04' W 093°21'0 0.0
2018-Feb-20 18:00N 30°04' W 093°21'0 0.0
2018-Feb-20 17:29N 30°04' W 093°21'0 0.0
2018-Feb-20 17:00N 30°04' W 093°21'0 0.0
2018-Feb-20 16:30N 30°04' W 093°21'0 0.0
2018-Feb-20 16:00N 30°04' W 093°21'0 0.0
2018-Feb-20 15:30N 30°04' W 093°21'0 0.0
2018-Feb-20 14:58N 30°04' W 093°21'0 0.0
2018-Feb-20 14:30N 30°04' W 093°21'0 0.0
2018-Feb-20 14:00N 30°04' W 093°21'0 0.0
2018-Feb-20 13:30N 30°04' W 093°21'0 0.0
2018-Feb-20 12:59N 30°04' W 093°21'0 0.0
2018-Feb-20 12:30N 30°04' W 093°21'0 0.0
2018-Feb-20 12:00N 30°04' W 093°21'1 1.7
2018-Feb-20 11:28N 30°04' W 093°22'0 0.0
2018-Feb-20 10:59N 30°04' W 093°22'0 0.0
2018-Feb-20 10:31N 30°04' W 093°22'0 0.0
2018-Feb-20 10:00N 30°04' W 093°22'0 0.0
2018-Feb-20 09:30N 30°04' W 093°22'0 0.0
2018-Feb-20 09:00N 30°04' W 093°22'0 0.0
2018-Feb-20 08:31N 30°04' W 093°22'0 0.0
2018-Feb-20 07:45N 30°04' W 093°22'0 0.0
2018-Feb-20 07:31N 30°04' W 093°22'0 0.0
2018-Feb-20 07:01N 30°04' W 093°22'0 0.0
2018-Feb-20 06:30N 30°04' W 093°22'0 0.0
2018-Feb-20 06:00N 30°04' W 093°22'0 0.0
2018-Feb-20 05:31N 30°04' W 093°22'0 0.0
2018-Feb-20 05:01N 30°04' W 093°22'0 0.0
2018-Feb-20 04:31N 30°04' W 093°22'0 0.0
2018-Feb-20 04:00N 30°04' W 093°22'0 0.0
2018-Feb-20 03:30N 30°04' W 093°22'0 0.0
2018-Feb-20 03:00N 30°04' W 093°22'0 0.0
2018-Feb-20 02:30N 30°04' W 093°22'0 0.0
2018-Feb-20 01:58N 30°04' W 093°22'0 0.0
2018-Feb-20 01:31N 30°04' W 093°22'0 0.1
2018-Feb-20 01:00N 30°04' W 093°22'3 5.4
2018-Feb-20 00:31N 30°04' W 093°25'3 6.2
2018-Feb-20 00:01N 30°04' W 093°29'3 6.2
2018-Feb-19 23:31N 30°04' W 093°33'3 6.4
2018-Feb-19 23:00N 30°04' W 093°36'3 6.2
2018-Feb-19 22:29N 30°04' W 093°40'2 3.5
2018-Feb-19 22:01N 30°03' W 093°42'3 6.5
2018-Feb-19 21:30N 30°01' W 093°45'3 6.6
2018-Feb-19 21:00N 29°59' W 093°48'3 6.5
2018-Feb-19 20:30N 29°58' W 093°51'3 5.8
2018-Feb-19 20:01N 29°56' W 093°53'3 6.2
2018-Feb-19 19:31N 29°53' W 093°55'3 5.8
2018-Feb-19 19:00N 29°51' W 093°57'2 4.1
2018-Feb-19 18:30N 29°49' W 093°58'0 0.0
2018-Feb-19 18:00N 29°49' W 093°58'2 4.1
2018-Feb-19 17:31N 29°48' W 094°00'3 6.4
2018-Feb-19 17:00N 29°46' W 094°03'3 6.5
2018-Feb-19 16:30N 29°44' W 094°06'2 5.1
2018-Feb-19 16:00N 29°42' W 094°08'3 6.1
2018-Feb-19 15:30N 29°41' W 094°12'3 6.1
2018-Feb-19 15:00N 29°40' W 094°15'3 6.1
2018-Feb-19 14:29N 29°38' W 094°18'3 6.0
2018-Feb-19 14:00N 29°37' W 094°21'3 5.5
2018-Feb-19 13:30N 29°36' W 094°24'2 2.5
2018-Feb-19 12:49N 29°35' W 094°25'1 3.9
2018-Feb-19 12:30N 29°34' W 094°26'2 4.3
2018-Feb-19 11:59N 29°33' W 094°28'2 5.1
2018-Feb-19 11:31N 29°31' W 094°30'1 2.7
2018-Feb-19 11:00N 29°31' W 094°32'0 0.0
2018-Feb-19 10:30N 29°31' W 094°32'0 0.4
2018-Feb-19 10:00N 29°30' W 094°32'2 5.0
2018-Feb-19 09:30N 29°30' W 094°35'3 5.2
2018-Feb-19 09:00N 29°29' W 094°37'3 5.2
2018-Feb-19 08:30N 29°28' W 094°40'3 5.0
2018-Feb-19 08:00N 29°26' W 094°43'3 6.0
2018-Feb-19 07:30N 29°24' W 094°45'0 0.9
2018-Feb-19 07:00N 29°24' W 094°46'0 0.0
2018-Feb-19 06:30N 29°24' W 094°46'0 0.0
2018-Feb-19 06:00N 29°24' W 094°46'0 0.0
2018-Feb-19 05:30N 29°24' W 094°46'0 0.0
2018-Feb-19 05:00N 29°24' W 094°46'0 0.0
2018-Feb-19 04:30N 29°24' W 094°46'0 0.0
2018-Feb-19 03:57N 29°24' W 094°46'0 0.0
2018-Feb-19 02:55N 29°24' W 094°46'5 1.8
2018-Feb-18 23:58N 29°19' W 094°48'1 0.4
2018-Feb-18 20:41N 29°19' W 094°49'0 0.3
2018-Feb-18 20:16N 29°18' W 094°49'0 0.1
2018-Feb-18 19:59N 29°18' W 094°49'0 0.0
2018-Feb-18 19:30N 29°18' W 094°49'0 0.1
2018-Feb-18 19:00N 29°18' W 094°49'0 0.3
2018-Feb-18 18:27N 29°19' W 094°49'0 0.1
2018-Feb-18 18:00N 29°19' W 094°49'0 0.2
2018-Feb-18 17:28N 29°18' W 094°49'0 0.0
2018-Feb-18 16:59N 29°18' W 094°49'0 0.0
2018-Feb-18 16:24N 29°18' W 094°49'0 0.0
2018-Feb-18 16:00N 29°18' W 094°49'0 0.0
2018-Feb-18 15:30N 29°18' W 094°49'0 0.0
2018-Feb-18 15:01N 29°18' W 094°49'0 0.0
2018-Feb-18 14:27N 29°18' W 094°49'0 0.0
2018-Feb-18 12:42N 29°18' W 094°49'0 0.0
2018-Feb-18 11:18N 29°18' W 094°49'0 0.0
2018-Feb-18 09:12N 29°18' W 094°49'0 0.0
2018-Feb-18 08:05N 29°18' W 094°49'0 0.0
2018-Feb-18 07:50N 29°18' W 094°49'0 0.0
2018-Feb-18 07:26N 29°18' W 094°49'0 0.0
2018-Feb-18 06:55N 29°18' W 094°49'0 0.0
2018-Feb-18 01:14N 29°18' W 094°49'0 0.0
2018-Feb-18 00:49N 29°18' W 094°49'0 0.0
2018-Feb-17 23:11N 29°18' W 094°49'0 0.0
2018-Feb-17 23:00N 29°18' W 094°49'0 0.0
2018-Feb-17 21:57N 29°18' W 094°49'1 0.0
2018-Feb-17 04:51N 29°19' W 094°49'0 0.0
2018-Feb-17 03:59N 29°19' W 094°49'0 0.0
2018-Feb-17 02:27N 29°19' W 094°49'0 0.0
2018-Feb-17 01:57N 29°19' W 094°49'0 0.0
2018-Feb-17 01:30N 29°19' W 094°49'0 0.0
2018-Feb-17 01:00N 29°19' W 094°49'0 0.0
2018-Feb-17 00:13N 29°19' W 094°49'0 0.0
2018-Feb-16 23:38N 29°19' W 094°49'0 0.0
2018-Feb-16 23:14N 29°19' W 094°49'0 0.0
2018-Feb-16 22:58N 29°19' W 094°49'8 1.3
2018-Feb-16 17:13N 29°26' W 094°50'2 7.8
2018-Feb-16 16:59N 29°28' W 094°51'4 7.6
2018-Feb-16 16:30N 29°31' W 094°53'4 7.0
2018-Feb-16 16:00N 29°34' W 094°55'3 5.5
2018-Feb-16 15:30N 29°36' W 094°57'3 5.7
2018-Feb-16 15:00N 29°39' W 094°58'4 7.3
2018-Feb-16 14:30N 29°42' W 095°00'3 6.3
2018-Feb-16 14:00N 29°44' W 095°03'3 6.0
2018-Feb-16 13:30N 29°47' W 095°05'7 0.4
2018-Feb-15 19:33N 29°42' W 094°59'7 3.2
2018-Feb-15 17:15N 29°47' W 095°05'  
Track history (hours):
 
Tides and Currents Weather Stations Pressure Air Temp Water Temp Dewpoint Dewpoint Depression Visibility Wind Speed Wind Dir Waves Ship Positions

Savage Elevate

Owner: Savage Inland Marine, Gibson, LA. More information available from US FCC via Universal Licensing System and Coast Guard Vessel Documentation Center.

Last reported at 2018-Feb-25 11:42 UTC. Time now 2018-Feb-25 19:30 UTC.
Position N 29°47' W 095°04'.

Length 24 m; draft 3 m.

Type: Tug. MMSI: 367583130.

Date/timePositionNaut miles runAvg speedWind from/ knotsBaromVisibWave heightAir tempDewpointWater temp
2018-Feb-25 11:42N 29°47' W 095°04'2 0.9
2018-Feb-25 08:57N 29°46' W 095°06'1 1.1
2018-Feb-25 08:24N 29°45' W 095°06'1 0.8
2018-Feb-25 07:13N 29°46' W 095°05'1 5.8
2018-Feb-25 06:58N 29°45' W 095°04'3 5.3
2018-Feb-25 06:29N 29°43' W 095°01'3 5.4
2018-Feb-25 06:00N 29°41' W 094°59'3 6.2
2018-Feb-25 05:30N 29°38' W 094°58'3 6.2
2018-Feb-25 05:00N 29°35' W 094°56'3 6.3
2018-Feb-25 04:30N 29°33' W 094°54'3 5.4
2018-Feb-25 04:00N 29°31' W 094°53'4 6.7
2018-Feb-25 03:28N 29°27' W 094°51'3 6.9
2018-Feb-25 03:00N 29°24' W 094°49'15 0.5
2018-Feb-23 19:06N 29°30' W 094°33'0 0.0
2018-Feb-23 18:39N 29°30' W 094°33'0 0.0
2018-Feb-23 17:39N 29°30' W 094°33'0 0.0
2018-Feb-23 09:12N 29°30' W 094°33'0 0.0
2018-Feb-23 08:07N 29°30' W 094°33'9 1.1
2018-Feb-23 00:40N 29°34' W 094°25'3 4.1
2018-Feb-22 23:49N 29°36' W 094°22'2 5.4
2018-Feb-22 23:26N 29°37' W 094°20'2 5.5
2018-Feb-22 23:00N 29°39' W 094°17'3 5.3
2018-Feb-22 22:30N 29°40' W 094°14'2 4.3
2018-Feb-22 22:00N 29°41' W 094°12'3 5.1
2018-Feb-22 21:30N 29°41' W 094°09'3 5.1
2018-Feb-22 21:00N 29°43' W 094°07'3 5.2
2018-Feb-22 20:30N 29°45' W 094°05'3 5.4
2018-Feb-22 20:00N 29°46' W 094°02'3 5.3
2018-Feb-22 19:30N 29°48' W 094°00'2 4.4
2018-Feb-22 19:00N 29°49' W 093°58'3 5.4
2018-Feb-22 18:30N 29°52' W 093°56'3 6.5
2018-Feb-22 18:00N 29°54' W 093°54'3 6.6
2018-Feb-22 17:30N 29°57' W 093°52'2 3.2
2018-Feb-22 17:00N 29°58' W 093°51'0 0.5
2018-Feb-22 16:30N 29°58' W 093°51'0 0.6
2018-Feb-22 16:00N 29°58' W 093°51'0 0.0
2018-Feb-22 15:30N 29°58' W 093°51'0 0.0
2018-Feb-22 15:00N 29°58' W 093°51'0 0.0
2018-Feb-22 14:30N 29°58' W 093°51'0 0.0
2018-Feb-22 14:01N 29°58' W 093°51'0 0.0
2018-Feb-22 13:31N 29°58' W 093°51'0 0.0
2018-Feb-22 13:01N 29°58' W 093°51'0 0.0
2018-Feb-22 12:30N 29°58' W 093°51'0 0.2
2018-Feb-22 12:00N 29°58' W 093°51'1 1.1
2018-Feb-22 11:30N 29°59' W 093°50'3 6.7
2018-Feb-22 11:00N 29°60' W 093°47'3 6.5
2018-Feb-22 10:30N 30°02' W 093°44'3 5.7
2018-Feb-22 09:59N 30°04' W 093°41'3 5.9
2018-Feb-22 09:30N 30°04' W 093°38'2 4.3
2018-Feb-22 08:59N 30°04' W 093°35'2 4.7
2018-Feb-22 08:30N 30°04' W 093°33'2 4.9
2018-Feb-22 08:00N 30°04' W 093°30'2 4.9
2018-Feb-22 07:30N 30°04' W 093°27'2 4.6
2018-Feb-22 07:00N 30°04' W 093°24'2 3.7
2018-Feb-22 06:28N 30°04' W 093°22'1 3.1
2018-Feb-22 06:00N 30°04' W 093°21'2 3.1
2018-Feb-22 05:24N 30°06' W 093°20'2 4.8
2018-Feb-22 05:00N 30°08' W 093°20'0 0.8
2018-Feb-22 04:26N 30°08' W 093°19'0 0.1
2018-Feb-22 03:54N 30°08' W 093°19'0 0.2
2018-Feb-22 03:08N 30°08' W 093°19'0 0.0
2018-Feb-22 02:54N 30°08' W 093°19'0 0.0
2018-Feb-22 02:22N 30°08' W 093°19'0 0.0
2018-Feb-22 02:00N 30°08' W 093°19'0 0.0
2018-Feb-22 01:28N 30°08' W 093°19'0 0.0
2018-Feb-22 01:00N 30°08' W 093°19'0 0.0
2018-Feb-22 00:30N 30°08' W 093°19'0 0.0
2018-Feb-22 00:00N 30°08' W 093°19'0 0.0
2018-Feb-21 23:28N 30°08' W 093°19'0 0.0
2018-Feb-21 22:50N 30°08' W 093°19'0 0.0
2018-Feb-21 22:30N 30°08' W 093°19'0 0.0
2018-Feb-21 22:00N 30°08' W 093°19'0 0.0
2018-Feb-21 21:28N 30°08' W 093°19'0 0.0
2018-Feb-21 21:00N 30°08' W 093°19'0 0.0
2018-Feb-21 20:30N 30°08' W 093°19'0 0.0
2018-Feb-21 20:00N 30°08' W 093°19'0 0.0
2018-Feb-21 19:23N 30°08' W 093°19'0 0.0
2018-Feb-21 19:00N 30°08' W 093°19'0 0.0
2018-Feb-21 18:26N 30°08' W 093°19'0 0.0
2018-Feb-21 18:00N 30°08' W 093°19'0 0.0
2018-Feb-21 17:30N 30°08' W 093°19'0 0.0
2018-Feb-21 17:00N 30°08' W 093°19'0 0.0
2018-Feb-21 16:30N 30°08' W 093°19'0 0.0
2018-Feb-21 16:00N 30°08' W 093°19'0 0.0
2018-Feb-21 15:30N 30°08' W 093°19'0 0.0
2018-Feb-21 15:00N 30°08' W 093°19'0 0.0
2018-Feb-21 14:30N 30°08' W 093°19'0 0.0
2018-Feb-21 14:00N 30°08' W 093°19'0 0.0
2018-Feb-21 13:29N 30°08' W 093°19'0 0.0
2018-Feb-21 13:00N 30°08' W 093°19'0 0.0
2018-Feb-21 12:30N 30°08' W 093°19'0 0.0
2018-Feb-21 12:00N 30°08' W 093°19'0 0.0
2018-Feb-21 11:30N 30°08' W 093°19'0 0.0
2018-Feb-21 11:00N 30°08' W 093°19'0 0.0
2018-Feb-21 10:30N 30°08' W 093°19'0 0.0
2018-Feb-21 10:00N 30°08' W 093°19'0 0.0
2018-Feb-21 09:29N 30°08' W 093°19'0 0.0
2018-Feb-21 09:00N 30°08' W 093°19'0 0.0
2018-Feb-21 08:30N 30°08' W 093°19'0 0.0
2018-Feb-21 08:00N 30°08' W 093°19'0 0.0
2018-Feb-21 07:30N 30°08' W 093°19'0 0.0
2018-Feb-21 07:00N 30°08' W 093°19'0 0.0
2018-Feb-21 06:30N 30°08' W 093°19'0 0.0
2018-Feb-21 06:00N 30°08' W 093°19'0 0.0
2018-Feb-21 05:30N 30°08' W 093°19'0 0.0
2018-Feb-21 05:00N 30°08' W 093°19'0 0.0
2018-Feb-21 04:30N 30°08' W 093°19'0 0.1
2018-Feb-21 04:00N 30°08' W 093°19'0 0.1
2018-Feb-21 03:30N 30°08' W 093°19'0 0.0
2018-Feb-21 02:59N 30°08' W 093°19'0 0.0
2018-Feb-21 02:30N 30°08' W 093°19'0 0.1
2018-Feb-21 02:00N 30°08' W 093°19'2 4.1
2018-Feb-21 01:30N 30°06' W 093°20'3 5.7
2018-Feb-21 01:00N 30°04' W 093°21'1 1.9
2018-Feb-21 00:29N 30°04' W 093°22'0 0.0
2018-Feb-21 00:00N 30°04' W 093°22'1 1.8
2018-Feb-20 23:30N 30°04' W 093°21'0 0.0
2018-Feb-20 23:00N 30°04' W 093°21'0 0.0
2018-Feb-20 22:30N 30°04' W 093°21'0 0.0
2018-Feb-20 22:00N 30°04' W 093°21'0 0.0
2018-Feb-20 21:30N 30°04' W 093°21'0 0.0
2018-Feb-20 21:00N 30°04' W 093°21'0 0.0
2018-Feb-20 20:28N 30°04' W 093°21'0 0.0
2018-Feb-20 20:00N 30°04' W 093°21'0 0.0
2018-Feb-20 19:30N 30°04' W 093°21'0 0.0
2018-Feb-20 19:00N 30°04' W 093°21'0 0.0
2018-Feb-20 18:30N 30°04' W 093°21'0 0.0
2018-Feb-20 18:00N 30°04' W 093°21'0 0.0
2018-Feb-20 17:29N 30°04' W 093°21'0 0.0
2018-Feb-20 17:00N 30°04' W 093°21'0 0.0
2018-Feb-20 16:30N 30°04' W 093°21'0 0.0
2018-Feb-20 16:00N 30°04' W 093°21'0 0.0
2018-Feb-20 15:30N 30°04' W 093°21'0 0.0
2018-Feb-20 14:58N 30°04' W 093°21'0 0.0
2018-Feb-20 14:30N 30°04' W 093°21'0 0.0
2018-Feb-20 14:00N 30°04' W 093°21'0 0.0
2018-Feb-20 13:30N 30°04' W 093°21'0 0.0
2018-Feb-20 12:59N 30°04' W 093°21'0 0.0
2018-Feb-20 12:30N 30°04' W 093°21'0 0.0
2018-Feb-20 12:00N 30°04' W 093°21'1 1.7
2018-Feb-20 11:28N 30°04' W 093°22'0 0.0
2018-Feb-20 10:59N 30°04' W 093°22'0 0.0
2018-Feb-20 10:31N 30°04' W 093°22'0 0.0
2018-Feb-20 10:00N 30°04' W 093°22'0 0.0
2018-Feb-20 09:30N 30°04' W 093°22'0 0.0
2018-Feb-20 09:00N 30°04' W 093°22'0 0.0
2018-Feb-20 08:31N 30°04' W 093°22'0 0.0
2018-Feb-20 07:45N 30°04' W 093°22'0 0.0
2018-Feb-20 07:31N 30°04' W 093°22'0 0.0
2018-Feb-20 07:01N 30°04' W 093°22'0 0.0
2018-Feb-20 06:30N 30°04' W 093°22'0 0.0
2018-Feb-20 06:00N 30°04' W 093°22'0 0.0
2018-Feb-20 05:31N 30°04' W 093°22'0 0.0
2018-Feb-20 05:01N 30°04' W 093°22'0 0.0
2018-Feb-20 04:31N 30°04' W 093°22'0 0.0
2018-Feb-20 04:00N 30°04' W 093°22'0 0.0
2018-Feb-20 03:30N 30°04' W 093°22'0 0.0
2018-Feb-20 03:00N 30°04' W 093°22'0 0.0
2018-Feb-20 02:30N 30°04' W 093°22'0 0.0
2018-Feb-20 01:58N 30°04' W 093°22'0 0.0
2018-Feb-20 01:31N 30°04' W 093°22'0 0.1
2018-Feb-20 01:00N 30°04' W 093°22'3 5.4
2018-Feb-20 00:31N 30°04' W 093°25'3 6.2
2018-Feb-20 00:01N 30°04' W 093°29'3 6.2
2018-Feb-19 23:31N 30°04' W 093°33'3 6.4
2018-Feb-19 23:00N 30°04' W 093°36'3 6.2
2018-Feb-19 22:29N 30°04' W 093°40'2 3.5
2018-Feb-19 22:01N 30°03' W 093°42'3 6.5
2018-Feb-19 21:30N 30°01' W 093°45'3 6.6
2018-Feb-19 21:00N 29°59' W 093°48'3 6.5
2018-Feb-19 20:30N 29°58' W 093°51'3 5.8
2018-Feb-19 20:01N 29°56' W 093°53'3 6.2
2018-Feb-19 19:31N 29°53' W 093°55'3 5.8
2018-Feb-19 19:00N 29°51' W 093°57'2 4.1
2018-Feb-19 18:30N 29°49' W 093°58'0 0.0
2018-Feb-19 18:00N 29°49' W 093°58'2 4.1
2018-Feb-19 17:31N 29°48' W 094°00'3 6.4
2018-Feb-19 17:00N 29°46' W 094°03'3 6.5
2018-Feb-19 16:30N 29°44' W 094°06'2 5.1
2018-Feb-19 16:00N 29°42' W 094°08'3 6.1
2018-Feb-19 15:30N 29°41' W 094°12'3 6.1
2018-Feb-19 15:00N 29°40' W 094°15'3 6.1
2018-Feb-19 14:29N 29°38' W 094°18'3 6.0
2018-Feb-19 14:00N 29°37' W 094°21'3 5.5
2018-Feb-19 13:30N 29°36' W 094°24'2 2.5
2018-Feb-19 12:49N 29°35' W 094°25'1 3.9
2018-Feb-19 12:30N 29°34' W 094°26'2 4.3
2018-Feb-19 11:59N 29°33' W 094°28'2 5.1
2018-Feb-19 11:31N 29°31' W 094°30'1 2.7
2018-Feb-19 11:00N 29°31' W 094°32'0 0.0
2018-Feb-19 10:30N 29°31' W 094°32'0 0.4
2018-Feb-19 10:00N 29°30' W 094°32'2 5.0
2018-Feb-19 09:30N 29°30' W 094°35'3 5.2
2018-Feb-19 09:00N 29°29' W 094°37'3 5.2
2018-Feb-19 08:30N 29°28' W 094°40'3 5.0
2018-Feb-19 08:00N 29°26' W 094°43'3 6.0
2018-Feb-19 07:30N 29°24' W 094°45'0 0.9
2018-Feb-19 07:00N 29°24' W 094°46'0 0.0
2018-Feb-19 06:30N 29°24' W 094°46'0 0.0
2018-Feb-19 06:00N 29°24' W 094°46'0 0.0
2018-Feb-19 05:30N 29°24' W 094°46'0 0.0
2018-Feb-19 05:00N 29°24' W 094°46'0 0.0
2018-Feb-19 04:30N 29°24' W 094°46'0 0.0
2018-Feb-19 03:57N 29°24' W 094°46'0 0.0
2018-Feb-19 02:55N 29°24' W 094°46'5 1.8
2018-Feb-18 23:58N 29°19' W 094°48'1 0.4
2018-Feb-18 20:41N 29°19' W 094°49'0 0.3
2018-Feb-18 20:16N 29°18' W 094°49'0 0.1
2018-Feb-18 19:59N 29°18' W 094°49'0 0.0
2018-Feb-18 19:30N 29°18' W 094°49'0 0.1
2018-Feb-18 19:00N 29°18' W 094°49'0 0.3
2018-Feb-18 18:27N 29°19' W 094°49'0 0.1
2018-Feb-18 18:00N 29°19' W 094°49'0 0.2
2018-Feb-18 17:28N 29°18' W 094°49'0 0.0
2018-Feb-18 16:59N 29°18' W 094°49'0 0.0
2018-Feb-18 16:24N 29°18' W 094°49'0 0.0
2018-Feb-18 16:00N 29°18' W 094°49'0 0.0
2018-Feb-18 15:30N 29°18' W 094°49'0 0.0
2018-Feb-18 15:01N 29°18' W 094°49'0 0.0
2018-Feb-18 14:27N 29°18' W 094°49'0 0.0
2018-Feb-18 12:42N 29°18' W 094°49'0 0.0
2018-Feb-18 11:18N 29°18' W 094°49'0 0.0
2018-Feb-18 09:12N 29°18' W 094°49'0 0.0
2018-Feb-18 08:05N 29°18' W 094°49'0 0.0
2018-Feb-18 07:50N 29°18' W 094°49'0 0.0
2018-Feb-18 07:26N 29°18' W 094°49'0 0.0
2018-Feb-18 06:55N 29°18' W 094°49'0 0.0
2018-Feb-18 01:14N 29°18' W 094°49'0 0.0
2018-Feb-18 00:49N 29°18' W 094°49'0 0.0
2018-Feb-17 23:11N 29°18' W 094°49'0 0.0
2018-Feb-17 23:00N 29°18' W 094°49'0 0.0
2018-Feb-17 21:57N 29°18' W 094°49'1 0.0
2018-Feb-17 04:51N 29°19' W 094°49'0 0.0
2018-Feb-17 03:59N 29°19' W 094°49'0 0.0
2018-Feb-17 02:27N 29°19' W 094°49'0 0.0
2018-Feb-17 01:57N 29°19' W 094°49'0 0.0
2018-Feb-17 01:30N 29°19' W 094°49'0 0.0
2018-Feb-17 01:00N 29°19' W 094°49'0 0.0
2018-Feb-17 00:13N 29°19' W 094°49'0 0.0
2018-Feb-16 23:38N 29°19' W 094°49'0 0.0
2018-Feb-16 23:14N 29°19' W 094°49'0 0.0
2018-Feb-16 22:58N 29°19' W 094°49'8 1.3
2018-Feb-16 17:13N 29°26' W 094°50'2 7.8
2018-Feb-16 16:59N 29°28' W 094°51'4 7.6
2018-Feb-16 16:30N 29°31' W 094°53'4 7.0
2018-Feb-16 16:00N 29°34' W 094°55'3 5.5
2018-Feb-16 15:30N 29°36' W 094°57'3 5.7
2018-Feb-16 15:00N 29°39' W 094°58'4 7.3
2018-Feb-16 14:30N 29°42' W 095°00'3 6.3
2018-Feb-16 14:00N 29°44' W 095°03'3 6.0
2018-Feb-16 13:30N 29°47' W 095°05'7 0.4
2018-Feb-15 19:33N 29°42' W 094°59'7 3.2
2018-Feb-15 17:15N 29°47' W 095°05'  

Dump ship's entire track history